sensor_id;sensor_type;location;lat;lon;timestamp;P1;durP1;ratioP1;P2;durP2;ratioP2
70757;SDS011;59316;52.964;7.102;2024-03-06T00:02:40;17.60;;;7.35;;
70757;SDS011;59316;52.964;7.102;2024-03-06T00:08:02;12.98;;;6.43;;
70757;SDS011;59316;52.964;7.102;2024-03-06T00:13:24;17.42;;;7.47;;
70757;SDS011;59316;52.964;7.102;2024-03-06T00:18:45;15.63;;;7.13;;
70757;SDS011;59316;52.964;7.102;2024-03-06T00:24:07;11.90;;;6.50;;
70757;SDS011;59316;52.964;7.102;2024-03-06T00:29:28;15.95;;;6.53;;
70757;SDS011;59316;52.964;7.102;2024-03-06T00:40:14;16.00;;;6.93;;
70757;SDS011;59316;52.964;7.102;2024-03-06T00:45:35;13.38;;;7.10;;
70757;SDS011;59316;52.964;7.102;2024-03-06T00:50:56;16.15;;;6.85;;
70757;SDS011;59316;52.964;7.102;2024-03-06T00:56:17;13.60;;;7.20;;
70757;SDS011;59316;52.964;7.102;2024-03-06T01:01:39;12.65;;;6.93;;
70757;SDS011;59316;52.964;7.102;2024-03-06T01:07:00;12.25;;;6.70;;
70757;SDS011;59316;52.964;7.102;2024-03-06T01:12:21;12.32;;;6.05;;
70757;SDS011;59316;52.964;7.102;2024-03-06T01:17:43;13.75;;;7.22;;
70757;SDS011;59316;52.964;7.102;2024-03-06T01:23:05;12.55;;;6.13;;
70757;SDS011;59316;52.964;7.102;2024-03-06T01:28:26;11.90;;;6.63;;
70757;SDS011;59316;52.964;7.102;2024-03-06T01:33:47;17.10;;;6.70;;
70757;SDS011;59316;52.964;7.102;2024-03-06T01:39:09;16.17;;;6.95;;
70757;SDS011;59316;52.964;7.102;2024-03-06T01:44:30;14.68;;;6.63;;
70757;SDS011;59316;52.964;7.102;2024-03-06T01:49:51;16.00;;;7.05;;
70757;SDS011;59316;52.964;7.102;2024-03-06T01:55:13;13.15;;;7.38;;
70757;SDS011;59316;52.964;7.102;2024-03-06T02:00:35;14.65;;;6.75;;
70757;SDS011;59316;52.964;7.102;2024-03-06T02:05:57;14.90;;;7.13;;
70757;SDS011;59316;52.964;7.102;2024-03-06T02:11:19;15.27;;;7.40;;
70757;SDS011;59316;52.964;7.102;2024-03-06T02:16:40;16.65;;;7.45;;
70757;SDS011;59316;52.964;7.102;2024-03-06T02:22:02;12.85;;;6.35;;
70757;SDS011;59316;52.964;7.102;2024-03-06T02:27:23;13.70;;;7.22;;
70757;SDS011;59316;52.964;7.102;2024-03-06T02:32:44;16.17;;;7.60;;
70757;SDS011;59316;52.964;7.102;2024-03-06T02:38:06;15.10;;;7.40;;
70757;SDS011;59316;52.964;7.102;2024-03-06T02:43:28;15.23;;;6.55;;
70757;SDS011;59316;52.964;7.102;2024-03-06T02:48:49;15.70;;;6.68;;
70757;SDS011;59316;52.964;7.102;2024-03-06T02:54:10;14.90;;;6.97;;
70757;SDS011;59316;52.964;7.102;2024-03-06T02:59:32;14.43;;;7.80;;
70757;SDS011;59316;52.964;7.102;2024-03-06T03:04:53;13.85;;;6.57;;
70757;SDS011;59316;52.964;7.102;2024-03-06T03:10:15;14.55;;;7.18;;
70757;SDS011;59316;52.964;7.102;2024-03-06T03:15:36;14.70;;;6.90;;
70757;SDS011;59316;52.964;7.102;2024-03-06T03:20:58;17.08;;;7.38;;
70757;SDS011;59316;52.964;7.102;2024-03-06T03:26:19;19.75;;;8.02;;
70757;SDS011;59316;52.964;7.102;2024-03-06T03:31:41;14.00;;;7.88;;
70757;SDS011;59316;52.964;7.102;2024-03-06T03:37:02;18.88;;;7.30;;
70757;SDS011;59316;52.964;7.102;2024-03-06T03:42:24;12.63;;;7.03;;
70757;SDS011;59316;52.964;7.102;2024-03-06T03:47:45;15.77;;;7.65;;
70757;SDS011;59316;52.964;7.102;2024-03-06T03:53:06;16.88;;;7.55;;
70757;SDS011;59316;52.964;7.102;2024-03-06T03:58:28;14.82;;;7.85;;
70757;SDS011;59316;52.964;7.102;2024-03-06T04:03:49;16.33;;;8.15;;
70757;SDS011;59316;52.964;7.102;2024-03-06T04:09:11;17.67;;;8.25;;
70757;SDS011;59316;52.964;7.102;2024-03-06T04:14:32;16.52;;;8.15;;
70757;SDS011;59316;52.964;7.102;2024-03-06T04:19:54;18.38;;;8.07;;
70757;SDS011;59316;52.964;7.102;2024-03-06T04:25:15;21.58;;;8.52;;
70757;SDS011;59316;52.964;7.102;2024-03-06T04:30:37;16.88;;;8.57;;
70757;SDS011;59316;52.964;7.102;2024-03-06T04:36:00;14.05;;;8.23;;
70757;SDS011;59316;52.964;7.102;2024-03-06T04:41:23;17.65;;;8.98;;
70757;SDS011;59316;52.964;7.102;2024-03-06T04:46:44;17.70;;;8.73;;
70757;SDS011;59316;52.964;7.102;2024-03-06T04:52:06;17.13;;;8.30;;
70757;SDS011;59316;52.964;7.102;2024-03-06T04:57:27;15.77;;;8.57;;
70757;SDS011;59316;52.964;7.102;2024-03-06T05:02:48;17.30;;;8.63;;
70757;SDS011;59316;52.964;7.102;2024-03-06T05:08:27;20.85;;;9.15;;
70757;SDS011;59316;52.964;7.102;2024-03-06T05:14:06;16.25;;;7.70;;
70757;SDS011;59316;52.964;7.102;2024-03-06T05:19:46;23.73;;;8.68;;
70757;SDS011;59316;52.964;7.102;2024-03-06T05:25:25;19.15;;;8.88;;
70757;SDS011;59316;52.964;7.102;2024-03-06T05:31:18;17.83;;;9.07;;
70757;SDS011;59316;52.964;7.102;2024-03-06T05:36:57;22.50;;;8.75;;
70757;SDS011;59316;52.964;7.102;2024-03-06T05:42:36;20.85;;;7.97;;
70757;SDS011;59316;52.964;7.102;2024-03-06T05:48:15;17.30;;;9.02;;
70757;SDS011;59316;52.964;7.102;2024-03-06T05:53:55;15.40;;;8.80;;
70757;SDS011;59316;52.964;7.102;2024-03-06T05:59:34;16.15;;;8.48;;
70757;SDS011;59316;52.964;7.102;2024-03-06T06:04:55;19.33;;;9.40;;
70757;SDS011;59316;52.964;7.102;2024-03-06T06:10:36;21.80;;;9.38;;
70757;SDS011;59316;52.964;7.102;2024-03-06T06:15:58;19.83;;;9.57;;
70757;SDS011;59316;52.964;7.102;2024-03-06T06:21:19;19.20;;;8.52;;
70757;SDS011;59316;52.964;7.102;2024-03-06T06:26:41;18.35;;;9.32;;
70757;SDS011;59316;52.964;7.102;2024-03-06T06:32:02;17.63;;;9.30;;
70757;SDS011;59316;52.964;7.102;2024-03-06T06:37:24;19.35;;;8.98;;
70757;SDS011;59316;52.964;7.102;2024-03-06T06:42:45;18.98;;;9.20;;
70757;SDS011;59316;52.964;7.102;2024-03-06T06:48:09;20.23;;;9.85;;
70757;SDS011;59316;52.964;7.102;2024-03-06T06:53:30;21.20;;;9.13;;
70757;SDS011;59316;52.964;7.102;2024-03-06T06:58:52;17.13;;;8.80;;
70757;SDS011;59316;52.964;7.102;2024-03-06T07:04:13;19.70;;;8.75;;
70757;SDS011;59316;52.964;7.102;2024-03-06T07:09:35;19.73;;;9.40;;
70757;SDS011;59316;52.964;7.102;2024-03-06T07:14:56;17.52;;;8.77;;
70757;SDS011;59316;52.964;7.102;2024-03-06T07:20:18;18.55;;;9.75;;
70757;SDS011;59316;52.964;7.102;2024-03-06T07:25:40;21.00;;;9.48;;
70757;SDS011;59316;52.964;7.102;2024-03-06T07:31:02;21.98;;;9.48;;
70757;SDS011;59316;52.964;7.102;2024-03-06T07:36:24;17.25;;;8.30;;
70757;SDS011;59316;52.964;7.102;2024-03-06T07:41:46;19.20;;;9.65;;
70757;SDS011;59316;52.964;7.102;2024-03-06T07:47:07;21.73;;;9.75;;
70757;SDS011;59316;52.964;7.102;2024-03-06T07:52:29;21.17;;;9.90;;
70757;SDS011;59316;52.964;7.102;2024-03-06T07:57:51;20.67;;;9.85;;
70757;SDS011;59316;52.964;7.102;2024-03-06T08:03:12;17.42;;;9.25;;
70757;SDS011;59316;52.964;7.102;2024-03-06T08:08:34;20.10;;;9.35;;
70757;SDS011;59316;52.964;7.102;2024-03-06T08:13:59;19.92;;;9.38;;
70757;SDS011;59316;52.964;7.102;2024-03-06T08:19:23;19.35;;;9.40;;
70757;SDS011;59316;52.964;7.102;2024-03-06T08:24:44;20.02;;;9.85;;
70757;SDS011;59316;52.964;7.102;2024-03-06T08:30:07;25.48;;;10.70;;
70757;SDS011;59316;52.964;7.102;2024-03-06T08:35:29;21.77;;;10.05;;
70757;SDS011;59316;52.964;7.102;2024-03-06T08:40:51;20.10;;;10.02;;
70757;SDS011;59316;52.964;7.102;2024-03-06T08:46:12;18.20;;;10.38;;
70757;SDS011;59316;52.964;7.102;2024-03-06T08:51:33;19.88;;;10.13;;
70757;SDS011;59316;52.964;7.102;2024-03-06T08:56:55;19.95;;;10.35;;
70757;SDS011;59316;52.964;7.102;2024-03-06T09:02:17;19.77;;;9.48;;
70757;SDS011;59316;52.964;7.102;2024-03-06T09:07:39;22.52;;;11.00;;
70757;SDS011;59316;52.964;7.102;2024-03-06T09:13:01;23.25;;;11.00;;
70757;SDS011;59316;52.964;7.102;2024-03-06T09:18:22;25.27;;;11.15;;
70757;SDS011;59316;52.964;7.102;2024-03-06T09:23:44;22.15;;;10.50;;
70757;SDS011;59316;52.964;7.102;2024-03-06T09:29:08;23.52;;;11.40;;
70757;SDS011;59316;52.964;7.102;2024-03-06T09:34:29;23.08;;;10.75;;
70757;SDS011;59316;52.964;7.102;2024-03-06T09:39:50;23.75;;;11.13;;
70757;SDS011;59316;52.964;7.102;2024-03-06T09:45:12;24.52;;;11.18;;
70757;SDS011;59316;52.964;7.102;2024-03-06T09:50:33;21.63;;;11.02;;
70757;SDS011;59316;52.964;7.102;2024-03-06T09:55:56;23.40;;;11.10;;
70757;SDS011;59316;52.964;7.102;2024-03-06T10:01:19;26.55;;;12.68;;
70757;SDS011;59316;52.964;7.102;2024-03-06T10:06:42;23.48;;;11.15;;
70757;SDS011;59316;52.964;7.102;2024-03-06T10:12:07;25.50;;;11.35;;
70757;SDS011;59316;52.964;7.102;2024-03-06T10:17:29;23.08;;;11.32;;
70757;SDS011;59316;52.964;7.102;2024-03-06T10:22:51;24.42;;;11.35;;
70757;SDS011;59316;52.964;7.102;2024-03-06T10:28:19;22.38;;;10.90;;
70757;SDS011;59316;52.964;7.102;2024-03-06T10:39:04;19.30;;;10.73;;
70757;SDS011;59316;52.964;7.102;2024-03-06T10:44:27;18.17;;;10.30;;
70757;SDS011;59316;52.964;7.102;2024-03-06T10:49:49;24.92;;;11.45;;
70757;SDS011;59316;52.964;7.102;2024-03-06T10:55:11;21.05;;;11.40;;
70757;SDS011;59316;52.964;7.102;2024-03-06T11:00:37;20.25;;;10.55;;
70757;SDS011;59316;52.964;7.102;2024-03-06T11:06:00;24.92;;;11.15;;
70757;SDS011;59316;52.964;7.102;2024-03-06T11:11:24;21.98;;;11.57;;
70757;SDS011;59316;52.964;7.102;2024-03-06T11:17:00;23.10;;;11.50;;
70757;SDS011;59316;52.964;7.102;2024-03-06T11:28:17;26.55;;;12.43;;
70757;SDS011;59316;52.964;7.102;2024-03-06T11:33:55;26.50;;;11.77;;
70757;SDS011;59316;52.964;7.102;2024-03-06T11:39:17;22.75;;;11.77;;
70757;SDS011;59316;52.964;7.102;2024-03-06T11:44:41;20.73;;;11.98;;
70757;SDS011;59316;52.964;7.102;2024-03-06T11:50:14;25.90;;;12.48;;
70757;SDS011;59316;52.964;7.102;2024-03-06T11:55:36;22.67;;;12.10;;
70757;SDS011;59316;52.964;7.102;2024-03-06T12:00:57;25.98;;;13.05;;
70757;SDS011;59316;52.964;7.102;2024-03-06T12:06:19;25.15;;;12.52;;
70757;SDS011;59316;52.964;7.102;2024-03-06T12:11:41;23.35;;;12.85;;
70757;SDS011;59316;52.964;7.102;2024-03-06T12:17:03;29.00;;;13.18;;
70757;SDS011;59316;52.964;7.102;2024-03-06T12:22:25;23.33;;;12.70;;
70757;SDS011;59316;52.964;7.102;2024-03-06T12:27:47;24.17;;;12.68;;
70757;SDS011;59316;52.964;7.102;2024-03-06T12:33:09;24.02;;;13.75;;
70757;SDS011;59316;52.964;7.102;2024-03-06T12:38:32;21.40;;;12.65;;
70757;SDS011;59316;52.964;7.102;2024-03-06T12:43:54;24.35;;;13.50;;
70757;SDS011;59316;52.964;7.102;2024-03-06T12:49:16;23.02;;;12.85;;
70757;SDS011;59316;52.964;7.102;2024-03-06T12:54:38;25.90;;;13.25;;
70757;SDS011;59316;52.964;7.102;2024-03-06T12:59:59;23.92;;;12.93;;
70757;SDS011;59316;52.964;7.102;2024-03-06T13:05:21;24.02;;;12.60;;
70757;SDS011;59316;52.964;7.102;2024-03-06T13:10:42;26.42;;;12.93;;
70757;SDS011;59316;52.964;7.102;2024-03-06T13:16:04;26.20;;;13.32;;
70757;SDS011;59316;52.964;7.102;2024-03-06T13:21:28;25.40;;;13.20;;
70757;SDS011;59316;52.964;7.102;2024-03-06T13:26:50;25.30;;;13.77;;
70757;SDS011;59316;52.964;7.102;2024-03-06T13:32:11;24.33;;;12.93;;
70757;SDS011;59316;52.964;7.102;2024-03-06T13:37:33;24.50;;;13.18;;
70757;SDS011;59316;52.964;7.102;2024-03-06T13:42:55;26.13;;;13.75;;
70757;SDS011;59316;52.964;7.102;2024-03-06T13:48:16;25.60;;;13.90;;
70757;SDS011;59316;52.964;7.102;2024-03-06T13:53:38;27.58;;;14.63;;
70757;SDS011;59316;52.964;7.102;2024-03-06T13:59:00;26.73;;;14.88;;
70757;SDS011;59316;52.964;7.102;2024-03-06T14:04:21;28.48;;;14.43;;
70757;SDS011;59316;52.964;7.102;2024-03-06T14:09:43;29.58;;;15.15;;
70757;SDS011;59316;52.964;7.102;2024-03-06T14:15:07;31.27;;;14.68;;
70757;SDS011;59316;52.964;7.102;2024-03-06T14:20:29;27.33;;;14.77;;
70757;SDS011;59316;52.964;7.102;2024-03-06T14:25:51;27.75;;;13.43;;
70757;SDS011;59316;52.964;7.102;2024-03-06T14:31:12;28.08;;;15.30;;
70757;SDS011;59316;52.964;7.102;2024-03-06T14:36:34;25.20;;;13.60;;
70757;SDS011;59316;52.964;7.102;2024-03-06T14:41:55;31.77;;;15.43;;
70757;SDS011;59316;52.964;7.102;2024-03-06T14:47:17;29.60;;;15.52;;
70757;SDS011;59316;52.964;7.102;2024-03-06T14:52:38;30.33;;;14.85;;
70757;SDS011;59316;52.964;7.102;2024-03-06T14:58:00;30.65;;;15.25;;
70757;SDS011;59316;52.964;7.102;2024-03-06T15:03:22;31.75;;;15.02;;
70757;SDS011;59316;52.964;7.102;2024-03-06T15:08:43;32.40;;;15.25;;
70757;SDS011;59316;52.964;7.102;2024-03-06T15:14:05;34.13;;;15.18;;
70757;SDS011;59316;52.964;7.102;2024-03-06T15:19:26;32.85;;;14.95;;
70757;SDS011;59316;52.964;7.102;2024-03-06T15:24:47;33.85;;;15.27;;
70757;SDS011;59316;52.964;7.102;2024-03-06T15:30:09;33.67;;;16.25;;
70757;SDS011;59316;52.964;7.102;2024-03-06T15:35:31;41.03;;;16.88;;
70757;SDS011;59316;52.964;7.102;2024-03-06T15:40:53;36.00;;;16.02;;
70757;SDS011;59316;52.964;7.102;2024-03-06T15:46:14;35.40;;;15.60;;
70757;SDS011;59316;52.964;7.102;2024-03-06T15:51:36;41.28;;;17.30;;
70757;SDS011;59316;52.964;7.102;2024-03-06T15:56:58;37.95;;;15.75;;
70757;SDS011;59316;52.964;7.102;2024-03-06T16:02:19;38.55;;;16.30;;
70757;SDS011;59316;52.964;7.102;2024-03-06T16:07:41;36.00;;;17.20;;
70757;SDS011;59316;52.964;7.102;2024-03-06T16:13:15;37.20;;;17.23;;
70757;SDS011;59316;52.964;7.102;2024-03-06T16:18:36;34.38;;;16.80;;
70757;SDS011;59316;52.964;7.102;2024-03-06T16:23:58;41.03;;;16.40;;
70757;SDS011;59316;52.964;7.102;2024-03-06T16:29:19;35.00;;;17.00;;
70757;SDS011;59316;52.964;7.102;2024-03-06T16:34:41;41.15;;;18.15;;
70757;SDS011;59316;52.964;7.102;2024-03-06T16:40:02;38.03;;;16.88;;
70757;SDS011;59316;52.964;7.102;2024-03-06T16:45:24;41.60;;;18.52;;
70757;SDS011;59316;52.964;7.102;2024-03-06T16:50:46;36.17;;;16.98;;
70757;SDS011;59316;52.964;7.102;2024-03-06T16:56:07;39.13;;;17.55;;
70757;SDS011;59316;52.964;7.102;2024-03-06T17:01:29;43.85;;;19.60;;
70757;SDS011;59316;52.964;7.102;2024-03-06T17:06:51;41.78;;;17.73;;
70757;SDS011;59316;52.964;7.102;2024-03-06T17:12:12;44.85;;;18.35;;
70757;SDS011;59316;52.964;7.102;2024-03-06T17:17:35;43.38;;;18.17;;
70757;SDS011;59316;52.964;7.102;2024-03-06T17:22:56;45.30;;;19.27;;
70757;SDS011;59316;52.964;7.102;2024-03-06T17:28:18;45.53;;;19.13;;
70757;SDS011;59316;52.964;7.102;2024-03-06T17:33:40;44.17;;;19.80;;
70757;SDS011;59316;52.964;7.102;2024-03-06T17:39:01;48.20;;;19.48;;
70757;SDS011;59316;52.964;7.102;2024-03-06T17:44:23;45.08;;;19.48;;
70757;SDS011;59316;52.964;7.102;2024-03-06T17:49:45;42.33;;;18.25;;
70757;SDS011;59316;52.964;7.102;2024-03-06T17:55:06;47.72;;;18.25;;
70757;SDS011;59316;52.964;7.102;2024-03-06T18:00:28;44.30;;;18.55;;
70757;SDS011;59316;52.964;7.102;2024-03-06T18:05:49;43.20;;;18.42;;
70757;SDS011;59316;52.964;7.102;2024-03-06T18:11:11;41.58;;;17.88;;
70757;SDS011;59316;52.964;7.102;2024-03-06T18:16:33;47.10;;;19.17;;
70757;SDS011;59316;52.964;7.102;2024-03-06T18:21:54;42.97;;;19.17;;
70757;SDS011;59316;52.964;7.102;2024-03-06T18:27:16;41.20;;;18.00;;
70757;SDS011;59316;52.964;7.102;2024-03-06T18:32:38;46.72;;;18.70;;
70757;SDS011;59316;52.964;7.102;2024-03-06T18:38:00;44.88;;;19.35;;
70757;SDS011;59316;52.964;7.102;2024-03-06T18:43:22;45.53;;;18.42;;
70757;SDS011;59316;52.964;7.102;2024-03-06T18:48:43;42.40;;;19.08;;
70757;SDS011;59316;52.964;7.102;2024-03-06T18:54:05;46.00;;;18.25;;
70757;SDS011;59316;52.964;7.102;2024-03-06T18:59:26;40.25;;;17.55;;
70757;SDS011;59316;52.964;7.102;2024-03-06T19:04:48;41.65;;;18.67;;
70757;SDS011;59316;52.964;7.102;2024-03-06T19:10:09;44.13;;;17.83;;
70757;SDS011;59316;52.964;7.102;2024-03-06T19:15:31;40.90;;;18.67;;
70757;SDS011;59316;52.964;7.102;2024-03-06T19:20:52;40.10;;;18.08;;
70757;SDS011;59316;52.964;7.102;2024-03-06T19:26:13;40.63;;;18.40;;
70757;SDS011;59316;52.964;7.102;2024-03-06T19:31:35;36.47;;;18.08;;
70757;SDS011;59316;52.964;7.102;2024-03-06T19:36:56;43.85;;;17.63;;
70757;SDS011;59316;52.964;7.102;2024-03-06T19:42:18;42.17;;;18.67;;
70757;SDS011;59316;52.964;7.102;2024-03-06T19:47:39;34.33;;;16.83;;
70757;SDS011;59316;52.964;7.102;2024-03-06T19:53:01;38.70;;;18.20;;
70757;SDS011;59316;52.964;7.102;2024-03-06T19:58:22;43.92;;;18.58;;
70757;SDS011;59316;52.964;7.102;2024-03-06T20:03:44;51.78;;;20.23;;
70757;SDS011;59316;52.964;7.102;2024-03-06T20:09:06;48.67;;;22.05;;
70757;SDS011;59316;52.964;7.102;2024-03-06T20:14:27;42.47;;;18.33;;
70757;SDS011;59316;52.964;7.102;2024-03-06T20:19:49;50.38;;;21.98;;
70757;SDS011;59316;52.964;7.102;2024-03-06T20:25:10;47.92;;;21.08;;
70757;SDS011;59316;52.964;7.102;2024-03-06T20:30:36;53.70;;;22.40;;
70757;SDS011;59316;52.964;7.102;2024-03-06T20:35:58;46.10;;;20.63;;
70757;SDS011;59316;52.964;7.102;2024-03-06T20:41:20;46.22;;;20.33;;
70757;SDS011;59316;52.964;7.102;2024-03-06T20:46:42;45.50;;;20.70;;
70757;SDS011;59316;52.964;7.102;2024-03-06T20:52:04;47.50;;;18.73;;
70757;SDS011;59316;52.964;7.102;2024-03-06T20:57:26;53.50;;;20.80;;
70757;SDS011;59316;52.964;7.102;2024-03-06T21:02:48;45.22;;;21.08;;
70757;SDS011;59316;52.964;7.102;2024-03-06T21:08:10;47.88;;;20.48;;
70757;SDS011;59316;52.964;7.102;2024-03-06T21:13:31;45.35;;;20.15;;
70757;SDS011;59316;52.964;7.102;2024-03-06T21:18:53;44.92;;;19.75;;
70757;SDS011;59316;52.964;7.102;2024-03-06T21:24:15;51.13;;;21.75;;
70757;SDS011;59316;52.964;7.102;2024-03-06T21:29:36;49.03;;;21.40;;
70757;SDS011;59316;52.964;7.102;2024-03-06T21:34:58;50.53;;;22.13;;
70757;SDS011;59316;52.964;7.102;2024-03-06T21:40:19;45.72;;;22.05;;
70757;SDS011;59316;52.964;7.102;2024-03-06T21:45:41;49.83;;;21.20;;
70757;SDS011;59316;52.964;7.102;2024-03-06T21:51:02;49.95;;;21.30;;
70757;SDS011;59316;52.964;7.102;2024-03-06T21:56:24;49.63;;;21.98;;
70757;SDS011;59316;52.964;7.102;2024-03-06T22:01:45;47.92;;;22.55;;
70757;SDS011;59316;52.964;7.102;2024-03-06T22:07:07;52.92;;;23.85;;
70757;SDS011;59316;52.964;7.102;2024-03-06T22:12:28;54.63;;;22.42;;
70757;SDS011;59316;52.964;7.102;2024-03-06T22:17:49;49.72;;;22.23;;
70757;SDS011;59316;52.964;7.102;2024-03-06T22:23:11;54.00;;;22.45;;
70757;SDS011;59316;52.964;7.102;2024-03-06T22:28:33;52.78;;;21.75;;
70757;SDS011;59316;52.964;7.102;2024-03-06T22:33:54;48.28;;;21.23;;
70757;SDS011;59316;52.964;7.102;2024-03-06T22:39:16;49.00;;;21.33;;
70757;SDS011;59316;52.964;7.102;2024-03-06T22:44:37;46.70;;;22.38;;
70757;SDS011;59316;52.964;7.102;2024-03-06T22:49:59;45.78;;;20.67;;
70757;SDS011;59316;52.964;7.102;2024-03-06T22:55:20;47.00;;;21.25;;
70757;SDS011;59316;52.964;7.102;2024-03-06T23:00:41;47.97;;;20.90;;
70757;SDS011;59316;52.964;7.102;2024-03-06T23:06:03;44.78;;;20.27;;
70757;SDS011;59316;52.964;7.102;2024-03-06T23:11:24;36.53;;;17.00;;
70757;SDS011;59316;52.964;7.102;2024-03-06T23:16:46;32.50;;;16.65;;
70757;SDS011;59316;52.964;7.102;2024-03-06T23:22:11;31.05;;;15.13;;
70757;SDS011;59316;52.964;7.102;2024-03-06T23:27:32;33.53;;;15.38;;
70757;SDS011;59316;52.964;7.102;2024-03-06T23:32:54;38.53;;;15.75;;
70757;SDS011;59316;52.964;7.102;2024-03-06T23:38:16;30.35;;;14.77;;
70757;SDS011;59316;52.964;7.102;2024-03-06T23:43:37;31.40;;;14.75;;
70757;SDS011;59316;52.964;7.102;2024-03-06T23:48:58;32.30;;;14.82;;
70757;SDS011;59316;52.964;7.102;2024-03-06T23:54:20;28.65;;;14.68;;
70757;SDS011;59316;52.964;7.102;2024-03-06T23:59:42;35.15;;;15.82;;
